Time;durP1;ratioP1;P1;durP2;ratioP2;P2;SDS_P1;SDS_P2;PMS_P1;PMS_P2;Temp;Humidity;BMP_temperature;BMP_pressure;BME280_temperature;BME280_humidity;BME280_pressure;Samples;Min_cycle;Max_cycle;Signal;HPM_P1;HPM_P2
2022/09/12 00:00:44;;;;;;;5.53;5.13;;;;;;;;;;1667528;29;22457;-64
2022/09/12 00:01:35;;;;;;;6.13;5.53;;;;;;;;;;1667637;29;21632;-64
2022/09/12 00:02:27;;;;;;;6.22;5.65;;;;;;;;;;1668705;29;21826;-64
2022/09/12 00:03:19;;;;;;;6.22;5.53;;;;;;;;;;1659797;29;22439;-63
2022/09/12 00:04:11;;;;;;;5.93;5.32;;;;;;;;;;1660715;29;21660;-63
2022/09/12 00:05:04;;;;;;;6.55;5.50;;;;;;;;;;1666013;29;21591;-64
2022/09/12 00:05:56;;;;;;;7.60;5.18;;;;;;;;;;1667229;29;21719;-63
2022/09/12 00:06:47;;;;;;;5.45;5.03;;;;;;;;;;1668836;29;22655;-63
2022/09/12 00:07:41;;;;;;;5.55;5.05;;;;;;;;;;1668898;29;21588;-63
2022/09/12 00:08:32;;;;;;;12.90;5.72;;;;;;;;;;1665549;29;22361;-62
2022/09/12 00:09:24;;;;;;;6.07;5.57;;;;;;;;;;1670722;29;21666;-63
2022/09/12 00:10:16;;;;;;;5.55;5.15;;;;;;;;;;1668850;29;21580;-63
2022/09/12 00:11:11;;;;;;;6.18;5.75;;;;;;;;;;1667841;29;21666;-63
2022/09/12 00:12:03;;;;;;;5.85;5.40;;;;;;;;;;1666850;29;21881;-63
2022/09/12 00:12:55;;;;;;;10.48;5.15;;;;;;;;;;1667576;29;21604;-63
2022/09/12 00:13:47;;;;;;;5.97;5.47;;;;;;;;;;1668947;29;22239;-62
2022/09/12 00:14:39;;;;;;;5.88;5.28;;;;;;;;;;1667152;29;21585;-63
2022/09/12 00:15:30;;;;;;;5.45;5.05;;;;;;;;;;1668984;29;22052;-64
2022/09/12 00:16:25;;;;;;;6.03;5.25;;;;;;;;;;1668412;29;22446;-64
2022/09/12 00:17:16;;;;;;;6.70;5.38;;;;;;;;;;1669028;29;22471;-63
2022/09/12 00:18:16;;;;;;;5.55;5.03;;;;;;;;;;1668268;29;21712;-63
2022/09/12 00:19:08;;;;;;;5.35;4.95;;;;;;;;;;1667912;29;21677;-63
2022/09/12 00:20:00;;;;;;;4.72;4.32;;;;;;;;;;1667247;29;21778;-63
2022/09/12 00:20:51;;;;;;;5.55;4.90;;;;;;;;;;1671333;29;21697;-64
2022/09/12 00:21:43;;;;;;;6.03;5.28;;;;;;;;;;1670108;29;21666;-64
2022/09/12 00:22:35;;;;;;;5.45;4.95;;;;;;;;;;1668361;29;21645;-63
2022/09/12 00:23:29;;;;;;;7.22;4.65;;;;;;;;;;1666029;29;22409;-62
2022/09/12 00:24:20;;;;;;;5.53;5.07;;;;;;;;;;1668815;29;22020;-63
2022/09/12 00:25:13;;;;;;;6.00;5.57;;;;;;;;;;1668190;29;21589;-62
2022/09/12 00:26:06;;;;;;;5.32;4.93;;;;;;;;;;1667020;29;21817;-63
2022/09/12 00:26:58;;;;;;;5.53;5.13;;;;;;;;;;1662046;29;21696;-62
2022/09/12 00:27:49;;;;;;;5.55;5.03;;;;;;;;;;1661311;29;22121;-62
2022/09/12 00:28:42;;;;;;;5.57;5.07;;;;;;;;;;1660119;29;21649;-62
2022/09/12 00:29:33;;;;;;;5.63;5.13;;;;;;;;;;1666580;29;22069;-63
2022/09/12 00:30:25;;;;;;;9.07;5.93;;;;;;;;;;1668236;29;21614;-62
2022/09/12 00:31:22;;;;;;;7.50;4.72;;;;;;;;;;1666952;29;21722;-62
2022/09/12 00:32:14;;;;;;;7.13;5.22;;;;;;;;;;1669532;29;22612;-63
2022/09/12 00:33:06;;;;;;;5.78;4.90;;;;;;;;;;1666583;29;22587;-62
2022/09/12 00:34:00;;;;;;;8.15;4.50;;;;;;;;;;1667445;29;22209;-63
2022/09/12 00:34:51;;;;;;;7.18;5.40;;;;;;;;;;1668503;29;21954;-62
2022/09/12 00:35:43;;;;;;;5.65;4.95;;;;;;;;;;1671279;29;21614;-63
2022/09/12 00:36:36;;;;;;;6.25;5.35;;;;;;;;;;1668236;29;21868;-63
2022/09/12 00:37:27;;;;;;;5.00;4.70;;;;;;;;;;1668643;29;21613;-63
2022/09/12 00:38:19;;;;;;;5.47;4.97;;;;;;;;;;1669633;29;22572;-63
2022/09/12 00:39:16;;;;;;;5.47;4.78;;;;;;;;;;1667244;29;21734;-63
2022/09/12 00:40:08;;;;;;;5.13;4.72;;;;;;;;;;1668583;29;21608;-63
2022/09/12 00:41:01;;;;;;;5.10;4.55;;;;;;;;;;1668347;29;22024;-63
2022/09/12 00:41:52;;;;;;;5.25;4.72;;;;;;;;;;1668450;29;22198;-63
2022/09/12 00:42:44;;;;;;;7.38;5.47;;;;;;;;;;1667949;29;21981;-63
2022/09/12 00:43:39;;;;;;;5.20;4.80;;;;;;;;;;1669118;29;21661;-64
2022/09/12 00:44:51;;;;;;;15.00;4.82;;;;;;;;;;1667196;29;21648;-64
2022/09/12 00:45:42;;;;;;;5.85;4.70;;;;;;;;;;1663744;29;22063;-64
2022/09/12 00:46:40;;;;;;;8.88;5.25;;;;;;;;;;1667269;29;21795;-63
2022/09/12 00:47:32;;;;;;;9.65;5.30;;;;;;;;;;1667145;29;22059;-63
2022/09/12 00:48:32;;;;;;;6.95;4.82;;;;;;;;;;1668646;29;21648;-63
2022/09/12 00:49:28;;;;;;;11.40;5.23;;;;;;;;;;1664308;29;21595;-63
2022/09/12 00:50:21;;;;;;;8.65;4.97;;;;;;;;;;1667377;29;21603;-63
2022/09/12 00:51:13;;;;;;;5.00;4.60;;;;;;;;;;1668782;29;22661;-63
2022/09/12 00:52:09;;;;;;;9.43;4.70;;;;;;;;;;1662142;29;21627;-63
2022/09/12 00:53:05;;;;;;;5.47;4.50;;;;;;;;;;1667026;29;22173;-63
2022/09/12 00:54:00;;;;;;;4.65;4.25;;;;;;;;;;1668508;29;22539;-63
2022/09/12 00:54:57;;;;;;;7.63;4.28;;;;;;;;;;1670663;29;21596;-63
2022/09/12 00:55:51;;;;;;;5.55;5.05;;;;;;;;;;1667293;29;21580;-63
2022/09/12 00:56:44;;;;;;;5.45;4.45;;;;;;;;;;1669795;29;21588;-63
2022/09/12 00:57:41;;;;;;;8.93;4.82;;;;;;;;;;1669772;29;22806;-63
2022/09/12 00:58:38;;;;;;;5.13;4.43;;;;;;;;;;1668407;29;21929;-63
2022/09/12 00:59:37;;;;;;;7.30;5.80;;;;;;;;;;1669696;29;21621;-63
2022/09/12 01:00:29;;;;;;;4.95;4.45;;;;;;;;;;1671933;29;21666;-63
2022/09/12 01:01:21;;;;;;;6.03;4.57;;;;;;;;;;1668161;29;21676;-63
2022/09/12 01:02:12;;;;;;;4.47;4.07;;;;;;;;;;1669919;29;22024;-63
2022/09/12 01:03:09;;;;;;;5.50;5.00;;;;;;;;;;1668027;29;22252;-63
2022/09/12 01:04:02;;;;;;;5.20;4.72;;;;;;;;;;1667732;29;21735;-62
2022/09/12 01:04:54;;;;;;;6.13;4.57;;;;;;;;;;1671110;29;22608;-63
2022/09/12 01:05:58;;;;;;;10.93;5.25;;;;;;;;;;1670916;29;22020;-63
2022/09/12 01:06:52;;;;;;;9.25;4.88;;;;;;;;;;1667071;29;22757;-63
2022/09/12 01:07:47;;;;;;;8.60;4.40;;;;;;;;;;1669639;29;21634;-63
2022/09/12 01:08:41;;;;;;;6.38;4.82;;;;;;;;;;1669827;29;21954;-63
2022/09/12 01:09:32;;;;;;;9.52;4.80;;;;;;;;;;1667180;29;22060;-63
2022/09/12 01:10:25;;;;;;;5.60;4.90;;;;;;;;;;1670676;29;21644;-63
2022/09/12 01:11:19;;;;;;;6.90;4.95;;;;;;;;;;1669545;29;21607;-63
2022/09/12 01:12:12;;;;;;;4.60;4.20;;;;;;;;;;1661685;29;21987;-63
2022/09/12 01:13:06;;;;;;;4.63;4.20;;;;;;;;;;1661768;29;22711;-63
2022/09/12 01:13:58;;;;;;;9.55;4.55;;;;;;;;;;1668542;29;21624;-63
2022/09/12 01:14:49;;;;;;;5.50;4.35;;;;;;;;;;1668486;29;21678;-63
2022/09/12 01:15:42;;;;;;;6.43;4.10;;;;;;;;;;1669981;29;21747;-63
2022/09/12 01:16:35;;;;;;;5.18;4.70;;;;;;;;;;1669490;29;22594;-63
2022/09/12 01:17:36;;;;;;;5.25;4.63;;;;;;;;;;1667211;29;21709;-63
2022/09/12 01:18:34;;;;;;;4.80;4.30;;;;;;;;;;1672328;29;22359;-64
2022/09/12 01:20:33;;;;;;;6.47;5.30;;;;;;;;;;1669254;29;21980;-63
2022/09/12 01:21:36;;;;;;;7.15;4.25;;;;;;;;;;1643100;29;22004;-63
2022/09/12 01:22:54;;;;;;;4.88;4.47;;;;;;;;;;1636925;29;21900;-64
2022/09/12 01:24:17;;;;;;;8.23;4.50;;;;;;;;;;1645951;29;21736;-64
2022/09/12 01:25:22;;;;;;;6.30;4.65;;;;;;;;;;1670505;29;22604;-63
2022/09/12 01:26:46;;;;;;;7.70;4.72;;;;;;;;;;1669681;29;22651;-63
2022/09/12 01:27:58;;;;;;;7.10;4.97;;;;;;;;;;1670619;29;21928;-64
2022/09/12 01:29:16;;;;;;;9.80;4.85;;;;;;;;;;1667993;29;21583;-63
2022/09/12 01:30:43;;;;;;;5.85;4.82;;;;;;;;;;1671551;29;22673;-63
2022/09/12 01:31:41;;;;;;;4.30;4.00;;;;;;;;;;1668171;29;21665;-64
2022/09/12 01:33:04;;;;;;;5.13;4.32;;;;;;;;;;1669384;29;21719;-64
2022/09/12 01:34:08;;;;;;;16.80;5.35;;;;;;;;;;1665259;29;22684;-63
2022/09/12 01:35:15;;;;;;;8.27;4.88;;;;;;;;;;1662854;29;22595;-63
2022/09/12 01:36:33;;;;;;;11.60;4.88;;;;;;;;;;1664649;29;21706;-64
2022/09/12 01:37:33;;;;;;;11.85;4.65;;;;;;;;;;1668262;29;21702;-63
2022/09/12 01:38:30;;;;;;;4.93;4.45;;;;;;;;;;1669252;29;22459;-63
2022/09/12 01:39:32;;;;;;;8.05;4.50;;;;;;;;;;1669307;29;21675;-64
2022/09/12 01:40:32;;;;;;;11.45;4.47;;;;;;;;;;1664986;29;22246;-63
2022/09/12 01:41:27;;;;;;;10.95;4.93;;;;;;;;;;1664703;29;22244;-63
2022/09/12 01:42:26;;;;;;;5.55;5.05;;;;;;;;;;1669515;29;21638;-63
2022/09/12 01:43:23;;;;;;;9.43;5.43;;;;;;;;;;1667679;29;21624;-63
2022/09/12 01:44:31;;;;;;;4.80;4.32;;;;;;;;;;1667111;29;22676;-63
2022/09/12 01:45:32;;;;;;;5.93;4.57;;;;;;;;;;1667881;29;21604;-63
2022/09/12 01:46:28;;;;;;;;;;;;;;;;;;1669757;29;21665;-63
2022/09/12 01:47:26;;;;;;;6.32;4.93;;;;;;;;;;1667702;29;21824;-64
2022/09/12 01:48:22;;;;;;;5.07;4.57;;;;;;;;;;1668433;29;22141;-63
2022/09/12 01:49:20;;;;;;;5.07;4.40;;;;;;;;;;1670361;29;22322;-63
2022/09/12 01:50:16;;;;;;;7.57;4.78;;;;;;;;;;1667766;29;21651;-64
2022/09/12 01:51:18;;;;;;;4.97;4.57;;;;;;;;;;1670097;29;21848;-63
2022/09/12 01:52:15;;;;;;;6.72;4.60;;;;;;;;;;1669312;29;21674;-64
2022/09/12 01:53:13;;;;;;;4.95;3.92;;;;;;;;;;1668735;29;21612;-63
2022/09/12 01:54:09;;;;;;;4.90;4.40;;;;;;;;;;1667812;29;21927;-64
2022/09/12 01:55:09;;;;;;;4.93;4.53;;;;;;;;;;1668900;29;22401;-63
2022/09/12 01:56:07;;;;;;;6.80;4.85;;;;;;;;;;1667105;29;21700;-64
2022/09/12 01:57:04;;;;;;;4.90;4.50;;;;;;;;;;1663411;29;21800;-64
2022/09/12 01:58:02;;;;;;;5.10;4.60;;;;;;;;;;1666437;29;21591;-63
2022/09/12 01:59:02;;;;;;;5.97;4.43;;;;;;;;;;1667845;29;21620;-63
2022/09/12 01:59:59;;;;;;;4.95;4.47;;;;;;;;;;1669157;29;22412;-63
2022/09/12 02:01:01;;;;;;;6.95;4.28;;;;;;;;;;1668771;29;21933;-63
2022/09/12 02:02:00;;;;;;;8.07;4.43;;;;;;;;;;1666446;29;21848;-64
2022/09/12 02:03:01;;;;;;;4.60;4.30;;;;;;;;;;1667578;29;22237;-64
2022/09/12 02:04:02;;;;;;;5.43;4.75;;;;;;;;;;1665360;29;22133;-63
2022/09/12 02:05:00;;;;;;;6.18;4.32;;;;;;;;;;1668877;29;21659;-64
2022/09/12 02:06:00;;;;;;;6.95;4.35;;;;;;;;;;1667914;29;21772;-63
2022/09/12 02:06:57;;;;;;;5.18;4.68;;;;;;;;;;1667276;29;22605;-63
2022/09/12 02:07:53;;;;;;;5.15;4.50;;;;;;;;;;1668801;29;21729;-63
2022/09/12 02:08:49;;;;;;;8.40;4.68;;;;;;;;;;1664652;29;21627;-63
2022/09/12 02:09:47;;;;;;;6.07;4.45;;;;;;;;;;1669103;29;21581;-63
2022/09/12 02:10:47;;;;;;;5.30;4.75;;;;;;;;;;1668970;29;22445;-64
2022/09/12 02:11:43;;;;;;;10.70;5.50;;;;;;;;;;1668930;29;22034;-64
2022/09/12 02:12:41;;;;;;;8.73;4.07;;;;;;;;;;1666876;29;22055;-63
2022/09/12 02:13:39;;;;;;;12.07;4.00;;;;;;;;;;1666821;29;21941;-64
2022/09/12 02:14:37;;;;;;;5.47;4.45;;;;;;;;;;1668399;29;22113;-64
2022/09/12 02:15:37;;;;;;;11.10;4.95;;;;;;;;;;1668817;29;21606;-63
2022/09/12 02:16:33;;;;;;;;;;;;;;;;;;1668600;29;21970;-64
2022/09/12 02:17:25;;;;;;;5.05;4.57;;;;;;;;;;1667215;29;22158;-64
2022/09/12 02:18:20;;;;;;;12.07;4.78;;;;;;;;;;1663460;29;21589;-64
2022/09/12 02:19:15;;;;;;;4.60;4.20;;;;;;;;;;1667943;29;21882;-63
2022/09/12 02:20:14;;;;;;;4.80;4.30;;;;;;;;;;1667446;29;21705;-62
2022/09/12 02:21:07;;;;;;;10.95;4.88;;;;;;;;;;1668771;29;21623;-63
2022/09/12 02:22:02;;;;;;;7.05;4.70;;;;;;;;;;1670450;29;21736;-64
2022/09/12 02:22:55;;;;;;;9.73;4.60;;;;;;;;;;1668488;29;21663;-63
2022/09/12 02:23:55;;;;;;;4.53;3.85;;;;;;;;;;1669643;29;22538;-63
2022/09/12 02:24:51;;;;;;;13.65;4.78;;;;;;;;;;1669110;29;21619;-63
2022/09/12 02:25:49;;;;;;;4.50;4.10;;;;;;;;;;1667712;29;22566;-64
2022/09/12 02:26:45;;;;;;;8.02;4.10;;;;;;;;;;1670210;29;22612;-63
2022/09/12 02:27:43;;;;;;;7.40;3.95;;;;;;;;;;1670031;29;21912;-63
2022/09/12 02:28:39;;;;;;;9.88;4.53;;;;;;;;;;1666957;29;22082;-63
2022/09/12 02:29:31;;;;;;;15.35;4.00;;;;;;;;;;1669269;29;21583;-64
2022/09/12 02:30:22;;;;;;;12.57;4.38;;;;;;;;;;1670187;29;21968;-63
2022/09/12 02:31:23;;;;;;;8.20;4.63;;;;;;;;;;1667313;29;22584;-63
2022/09/12 02:32:28;;;;;;;4.78;4.07;;;;;;;;;;1669225;29;22125;-63
2022/09/12 02:33:27;;;;;;;7.38;4.60;;;;;;;;;;1659109;29;21727;-64
2022/09/12 02:34:32;;;;;;;20.70;4.25;;;;;;;;;;1660745;29;21605;-63
2022/09/12 02:35:33;;;;;;;9.43;4.20;;;;;;;;;;1670332;29;21679;-64
2022/09/12 02:36:34;;;;;;;12.38;4.00;;;;;;;;;;1668339;29;21709;-63
2022/09/12 02:37:42;;;;;;;4.45;4.03;;;;;;;;;;1667133;29;22285;-64
2022/09/12 02:38:40;;;;;;;9.57;4.60;;;;;;;;;;1667764;29;21604;-64
2022/09/12 02:39:33;;;;;;;4.65;4.20;;;;;;;;;;1667424;29;21762;-63
2022/09/12 02:40:24;;;;;;;13.90;4.15;;;;;;;;;;1669075;29;22547;-64
2022/09/12 02:41:20;;;;;;;14.13;4.95;;;;;;;;;;1667590;29;22016;-63
2022/09/12 02:42:12;;;;;;;4.53;4.00;;;;;;;;;;1668671;29;21670;-64
2022/09/12 02:43:06;;;;;;;10.63;4.57;;;;;;;;;;1663496;29;21690;-63
2022/09/12 02:43:57;;;;;;;6.22;4.28;;;;;;;;;;1661154;29;22646;-63
2022/09/12 02:44:51;;;;;;;9.13;3.85;;;;;;;;;;1664635;29;21755;-64
2022/09/12 02:45:42;;;;;;;4.78;4.25;;;;;;;;;;1669077;29;21608;-63
2022/09/12 02:46:42;;;;;;;6.10;4.03;;;;;;;;;;1667500;29;21726;-64
2022/09/12 02:47:40;;;;;;;5.32;4.50;;;;;;;;;;1666981;29;22028;-63
2022/09/12 02:48:37;;;;;;;6.50;4.18;;;;;;;;;;1669174;29;21660;-63
2022/09/12 02:49:28;;;;;;;4.20;3.65;;;;;;;;;;1664697;29;22339;-64
2022/09/12 02:50:20;;;;;;;6.50;3.92;;;;;;;;;;1668085;29;21613;-63
2022/09/12 02:51:12;;;;;;;7.15;4.07;;;;;;;;;;1668923;29;21590;-63
2022/09/12 02:52:03;;;;;;;4.38;4.00;;;;;;;;;;1661517;29;21603;-63
2022/09/12 02:53:02;;;;;;;7.28;3.58;;;;;;;;;;1660985;29;22773;-63
2022/09/12 02:53:54;;;;;;;4.55;4.15;;;;;;;;;;1667736;29;21633;-63
2022/09/12 02:54:47;;;;;;;4.93;4.18;;;;;;;;;;1668683;29;22575;-63
2022/09/12 02:55:40;;;;;;;5.78;3.60;;;;;;;;;;1667151;29;21598;-64
2022/09/12 02:56:32;;;;;;;8.48;4.25;;;;;;;;;;1668870;29;21688;-64
2022/09/12 02:57:24;;;;;;;4.25;3.85;;;;;;;;;;1668920;29;22810;-64
2022/09/12 02:58:22;;;;;;;4.57;4.00;;;;;;;;;;1666964;29;21828;-63
2022/09/12 02:59:18;;;;;;;3.63;3.35;;;;;;;;;;1668002;29;22061;-64
2022/09/12 03:00:11;;;;;;;4.32;3.80;;;;;;;;;;1668995;29;22537;-63
2022/09/12 03:01:13;;;;;;;5.05;4.22;;;;;;;;;;1665805;29;22300;-64
2022/09/12 03:02:24;;;;;;;5.10;4.70;;;;;;;;;;1668785;29;22198;-63
2022/09/12 03:03:44;;;;;;;4.45;3.72;;;;;;;;;;1666502;29;21715;-63
2022/09/12 03:05:08;;;;;;;5.03;3.72;;;;;;;;;;1666649;29;21822;-64
2022/09/12 03:06:02;;;;;;;4.20;3.58;;;;;;;;;;1663972;29;22540;-63
2022/09/12 03:07:11;;;;;;;6.10;4.15;;;;;;;;;;1667895;29;22225;-63
2022/09/12 03:08:33;;;;;;;3.83;3.53;;;;;;;;;;1670172;29;21584;-62
2022/09/12 03:09:36;;;;;;;4.60;3.95;;;;;;;;;;1667684;29;21593;-63
2022/09/12 03:10:38;;;;;;;3.60;3.30;;;;;;;;;;1663107;29;21639;-63
2022/09/12 03:11:56;;;;;;;13.10;4.32;;;;;;;;;;1664551;29;21773;-64
2022/09/12 03:13:01;;;;;;;6.78;3.67;;;;;;;;;;1662816;29;22061;-64
2022/09/12 03:14:06;;;;;;;5.15;3.60;;;;;;;;;;1666769;29;22424;-63
2022/09/12 03:15:12;;;;;;;6.43;3.78;;;;;;;;;;1667689;29;21675;-63
2022/09/12 03:16:14;;;;;;;8.35;3.40;;;;;;;;;;1668359;29;21596;-64
2022/09/12 03:17:18;;;;;;;4.63;3.90;;;;;;;;;;1668214;29;21781;-63
2022/09/12 03:18:30;;;;;;;8.68;3.60;;;;;;;;;;1667263;29;22595;-63
2022/09/12 03:19:31;;;;;;;4.43;4.13;;;;;;;;;;1665808;29;21752;-63
2022/09/12 03:20:40;;;;;;;8.77;3.97;;;;;;;;;;1669546;29;22271;-63
2022/09/12 03:21:41;;;;;;;6.67;3.80;;;;;;;;;;1668894;29;21644;-64
2022/09/12 03:22:40;;;;;;;4.80;4.40;;;;;;;;;;1668106;29;21729;-63
2022/09/12 03:23:38;;;;;;;5.57;4.00;;;;;;;;;;1667406;29;21709;-64
2022/09/12 03:24:34;;;;;;;6.25;3.88;;;;;;;;;;1669063;29;21578;-63
2022/09/12 03:25:30;;;;;;;6.30;4.15;;;;;;;;;;1667348;29;22720;-64
2022/09/12 03:26:31;;;;;;;5.07;4.00;;;;;;;;;;1667619;29;22055;-63
2022/09/12 03:27:29;;;;;;;6.72;3.65;;;;;;;;;;1668433;29;21659;-63
2022/09/12 03:28:23;;;;;;;4.03;3.55;;;;;;;;;;1666445;29;22426;-63
2022/09/12 03:29:16;;;;;;;4.05;3.72;;;;;;;;;;1666009;29;22062;-63
2022/09/12 03:30:11;;;;;;;4.00;3.67;;;;;;;;;;1668633;29;22546;-63
2022/09/12 03:31:13;;;;;;;3.97;3.67;;;;;;;;;;1666630;29;22541;-63
2022/09/12 03:32:06;;;;;;;6.15;3.60;;;;;;;;;;1669785;29;21648;-64
2022/09/12 03:32:57;;;;;;;5.28;4.03;;;;;;;;;;1667163;29;22195;-63
2022/09/12 03:33:51;;;;;;;4.53;3.83;;;;;;;;;;1667387;29;21983;-63
2022/09/12 03:34:42;;;;;;;4.30;3.90;;;;;;;;;;1668691;29;21727;-63
2022/09/12 03:35:34;;;;;;;4.07;3.78;;;;;;;;;;1668809;29;21602;-63
2022/09/12 03:36:29;;;;;;;4.47;4.18;;;;;;;;;;1666192;29;21606;-63
2022/09/12 03:37:20;;;;;;;4.30;4.00;;;;;;;;;;1668814;29;21781;-63
2022/09/12 03:38:13;;;;;;;4.47;3.75;;;;;;;;;;1668925;29;21776;-63
2022/09/12 03:39:04;;;;;;;7.60;3.58;;;;;;;;;;1666465;29;21732;-63
2022/09/12 03:39:56;;;;;;;4.50;3.60;;;;;;;;;;1668738;29;21809;-63
2022/09/12 03:40:47;;;;;;;4.18;3.78;;;;;;;;;;1670077;29;21656;-63
2022/09/12 03:41:39;;;;;;;3.50;3.20;;;;;;;;;;1666499;29;21815;-63
2022/09/12 03:42:31;;;;;;;6.45;3.60;;;;;;;;;;1668454;29;21744;-63
2022/09/12 03:43:23;;;;;;;3.50;3.30;;;;;;;;;;1667332;29;21819;-63
2022/09/12 03:44:14;;;;;;;8.43;4.05;;;;;;;;;;1665933;29;21963;-63
2022/09/12 03:45:08;;;;;;;4.85;3.58;;;;;;;;;;1667806;29;21592;-63
2022/09/12 03:45:59;;;;;;;4.28;3.67;;;;;;;;;;1668240;29;21696;-63
2022/09/12 03:46:52;;;;;;;5.28;3.60;;;;;;;;;;1667127;29;22551;-64
2022/09/12 03:47:43;;;;;;;4.10;3.70;;;;;;;;;;1667520;29;21634;-63
2022/09/12 03:48:35;;;;;;;3.63;3.33;;;;;;;;;;1670517;29;22020;-63
2022/09/12 03:49:28;;;;;;;4.20;3.90;;;;;;;;;;1667149;29;22268;-63
2022/09/12 03:50:20;;;;;;;3.92;3.63;;;;;;;;;;1667988;29;21612;-63
2022/09/12 03:51:11;;;;;;;3.83;3.50;;;;;;;;;;1668942;29;21997;-63
2022/09/12 03:52:04;;;;;;;4.32;3.28;;;;;;;;;;1668451;29;22831;-63
2022/09/12 03:52:58;;;;;;;3.97;3.58;;;;;;;;;;1665775;29;21611;-63
2022/09/12 03:53:50;;;;;;;8.65;3.60;;;;;;;;;;1666725;29;22276;-64
2022/09/12 03:54:41;;;;;;;4.20;3.75;;;;;;;;;;1668601;29;21614;-63
2022/09/12 03:55:34;;;;;;;3.70;3.40;;;;;;;;;;1667049;29;22406;-63
2022/09/12 03:56:26;;;;;;;3.63;3.28;;;;;;;;;;1668053;29;21698;-64
2022/09/12 03:57:18;;;;;;;4.28;4.00;;;;;;;;;;1668401;29;21726;-64
2022/09/12 03:58:09;;;;;;;3.95;3.55;;;;;;;;;;1667165;29;21607;-63
2022/09/12 03:59:04;;;;;;;3.83;3.50;;;;;;;;;;1667164;29;22326;-63
2022/09/12 03:59:56;;;;;;;4.50;3.50;;;;;;;;;;1668678;29;22445;-63
2022/09/12 04:00:48;;;;;;;5.35;3.58;;;;;;;;;;1667212;29;21634;-63
2022/09/12 04:01:40;;;;;;;3.75;3.45;;;;;;;;;;1667323;29;22007;-63
2022/09/12 04:02:32;;;;;;;3.95;3.28;;;;;;;;;;1668915;29;22383;-63
2022/09/12 04:03:24;;;;;;;3.60;3.30;;;;;;;;;;1666529;29;21749;-63
2022/09/12 04:04:16;;;;;;;3.80;3.40;;;;;;;;;;1667667;29;21909;-63
2022/09/12 04:05:09;;;;;;;3.13;2.90;;;;;;;;;;1668355;29;21957;-63
2022/09/12 04:06:01;;;;;;;7.05;3.28;;;;;;;;;;1667780;29;21820;-63
2022/09/12 04:06:52;;;;;;;4.03;3.53;;;;;;;;;;1667625;29;22199;-63
2022/09/12 04:07:44;;;;;;;4.28;3.25;;;;;;;;;;1668551;29;22468;-64
2022/09/12 04:08:37;;;;;;;7.55;3.33;;;;;;;;;;1667155;29;21612;-64
2022/09/12 04:09:29;;;;;;;5.72;3.60;;;;;;;;;;1666650;29;22083;-63
2022/09/12 04:10:21;;;;;;;3.80;3.50;;;;;;;;;;1668740;29;22049;-63
2022/09/12 04:11:15;;;;;;;3.40;3.13;;;;;;;;;;1667204;29;21608;-63
2022/09/12 04:12:06;;;;;;;3.47;3.25;;;;;;;;;;1666925;29;21917;-63
2022/09/12 04:12:59;;;;;;;5.75;3.50;;;;;;;;;;1666828;29;21896;-63
2022/09/12 04:13:50;;;;;;;3.95;3.58;;;;;;;;;;1668166;29;21697;-64
2022/09/12 04:14:42;;;;;;;3.55;3.30;;;;;;;;;;1667435;29;21638;-63
2022/09/12 04:15:33;;;;;;;8.43;3.50;;;;;;;;;;1668709;29;21695;-63
2022/09/12 04:16:25;;;;;;;5.95;3.30;;;;;;;;;;1668204;29;22652;-63
2022/09/12 04:17:17;;;;;;;3.50;3.20;;;;;;;;;;1664580;29;22504;-64
2022/09/12 04:18:09;;;;;;;3.60;3.30;;;;;;;;;;1668392;29;21727;-63
2022/09/12 04:19:00;;;;;;;3.45;3.15;;;;;;;;;;1668145;29;22465;-63
2022/09/12 04:19:52;;;;;;;3.35;3.03;;;;;;;;;;1668037;29;21900;-64
2022/09/12 04:20:45;;;;;;;4.25;3.60;;;;;;;;;;1668402;29;22020;-63
2022/09/12 04:21:38;;;;;;;4.68;3.38;;;;;;;;;;1670000;29;21656;-63
2022/09/12 04:22:30;;;;;;;3.60;3.30;;;;;;;;;;1667817;29;22465;-63
2022/09/12 04:23:23;;;;;;;3.58;3.28;;;;;;;;;;1665585;29;22533;-63
2022/09/12 04:24:14;;;;;;;4.57;3.90;;;;;;;;;;1668728;29;21624;-63
2022/09/12 04:25:09;;;;;;;3.47;3.17;;;;;;;;;;1667292;29;22781;-63
2022/09/12 04:26:02;;;;;;;3.38;3.17;;;;;;;;;;1666570;29;21819;-63
2022/09/12 04:26:54;;;;;;;5.13;3.60;;;;;;;;;;1667947;29;22059;-63
2022/09/12 04:27:45;;;;;;;3.83;3.53;;;;;;;;;;1667820;29;21622;-63
2022/09/12 04:28:37;;;;;;;6.22;3.45;;;;;;;;;;1666855;29;21623;-63
2022/09/12 04:29:30;;;;;;;3.65;3.35;;;;;;;;;;1668810;29;22226;-64
2022/09/12 04:30:21;;;;;;;3.22;3.03;;;;;;;;;;1668508;29;21669;-63
2022/09/12 04:31:18;;;;;;;5.07;3.08;;;;;;;;;;1668060;29;21599;-63
2022/09/12 04:32:10;;;;;;;4.05;3.10;;;;;;;;;;1668642;29;21803;-63
2022/09/12 04:33:02;;;;;;;3.28;2.97;;;;;;;;;;1666625;29;21689;-63
2022/09/12 04:33:54;;;;;;;3.47;3.20;;;;;;;;;;1666444;29;21757;-63
2022/09/12 04:34:46;;;;;;;5.32;3.10;;;;;;;;;;1667857;29;21893;-63
2022/09/12 04:35:37;;;;;;;3.03;2.80;;;;;;;;;;1661259;29;21635;-63
2022/09/12 04:36:33;;;;;;;3.92;3.20;;;;;;;;;;1661421;29;21605;-63
2022/09/12 04:37:24;;;;;;;3.63;3.33;;;;;;;;;;1666418;29;22013;-63
2022/09/12 04:38:15;;;;;;;3.22;3.03;;;;;;;;;;1668437;29;21766;-63
2022/09/12 04:39:07;;;;;;;3.38;3.00;;;;;;;;;;1665451;29;21599;-63
2022/09/12 04:39:59;;;;;;;4.13;3.22;;;;;;;;;;1668290;29;21575;-63
2022/09/12 04:40:51;;;;;;;7.95;3.42;;;;;;;;;;1668498;29;22479;-63
2022/09/12 04:41:42;;;;;;;3.45;3.25;;;;;;;;;;1666755;29;21670;-63
2022/09/12 04:42:34;;;;;;;3.95;3.40;;;;;;;;;;1668446;29;21636;-63
2022/09/12 04:43:26;;;;;;;4.00;3.60;;;;;;;;;;1667335;29;22581;-63
2022/09/12 04:44:18;;;;;;;4.90;3.13;;;;;;;;;;1666445;29;22016;-63
2022/09/12 04:45:10;;;;;;;3.55;3.33;;;;;;;;;;1669503;29;21594;-63
2022/09/12 04:46:06;;;;;;;3.45;3.15;;;;;;;;;;1667905;29;22677;-63
2022/09/12 04:46:57;;;;;;;5.43;3.90;;;;;;;;;;1666842;29;21597;-63
2022/09/12 04:47:49;;;;;;;3.88;3.20;;;;;;;;;;1667301;29;22465;-63
2022/09/12 04:48:41;;;;;;;3.22;2.92;;;;;;;;;;1668712;29;21651;-63
2022/09/12 04:49:34;;;;;;;4.32;3.00;;;;;;;;;;1667216;29;22073;-64
2022/09/12 04:50:25;;;;;;;3.38;3.08;;;;;;;;;;1667578;29;21622;-64
2022/09/12 04:51:26;;;;;;;4.53;3.50;;;;;;;;;;1668405;29;21607;-64
2022/09/12 04:52:19;;;;;;;3.30;3.10;;;;;;;;;;1668481;29;22273;-63
2022/09/12 04:53:11;;;;;;;3.67;3.08;;;;;;;;;;1666318;29;22370;-64
2022/09/12 04:54:05;;;;;;;3.38;3.08;;;;;;;;;;1664902;29;21645;-63
2022/09/12 04:54:57;;;;;;;3.63;3.38;;;;;;;;;;1670204;29;21743;-63
2022/09/12 04:55:49;;;;;;;3.85;3.50;;;;;;;;;;1665583;29;21605;-63
2022/09/12 04:56:43;;;;;;;3.42;3.13;;;;;;;;;;1668480;29;22401;-63
2022/09/12 04:57:34;;;;;;;3.67;3.38;;;;;;;;;;1670242;29;22504;-63
2022/09/12 04:58:27;;;;;;;3.15;2.95;;;;;;;;;;1665951;29;21765;-63
2022/09/12 04:59:20;;;;;;;4.68;3.30;;;;;;;;;;1669372;29;21938;-64
2022/09/12 05:00:14;;;;;;;3.35;2.97;;;;;;;;;;1668267;29;22022;-63
2022/09/12 05:01:07;;;;;;;4.68;3.10;;;;;;;;;;1665613;29;21637;-63
2022/09/12 05:01:59;;;;;;;3.60;3.30;;;;;;;;;;1668001;29;21769;-63
2022/09/12 05:02:50;;;;;;;4.70;3.10;;;;;;;;;;1667657;29;21590;-63
2022/09/12 05:03:44;;;;;;;4.32;3.03;;;;;;;;;;1666038;29;22294;-63
2022/09/12 05:04:35;;;;;;;3.72;3.47;;;;;;;;;;1668338;29;21672;-63
2022/09/12 05:05:27;;;;;;;5.05;3.38;;;;;;;;;;1668128;29;22455;-63
2022/09/12 05:06:21;;;;;;;3.88;3.00;;;;;;;;;;1665979;29;21755;-63
2022/09/12 05:07:13;;;;;;;3.55;3.25;;;;;;;;;;1665604;29;21804;-64
2022/09/12 05:08:07;;;;;;;3.50;3.03;;;;;;;;;;1669057;29;21769;-64
2022/09/12 05:09:00;;;;;;;3.35;3.13;;;;;;;;;;1667942;29;21545;-63
2022/09/12 05:09:52;;;;;;;4.65;2.83;;;;;;;;;;1665769;29;22533;-63
2022/09/12 05:10:44;;;;;;;5.47;3.78;;;;;;;;;;1668618;29;21607;-64
2022/09/12 05:11:38;;;;;;;3.22;2.92;;;;;;;;;;1666791;29;22330;-64
2022/09/12 05:12:31;;;;;;;5.05;3.28;;;;;;;;;;1669193;29;22606;-64
2022/09/12 05:13:22;;;;;;;4.15;3.20;;;;;;;;;;1665730;29;21947;-63
2022/09/12 05:14:14;;;;;;;3.85;3.55;;;;;;;;;;1666908;29;21641;-61
2022/09/12 05:15:07;;;;;;;3.85;3.42;;;;;;;;;;1668240;29;22052;-62
2022/09/12 05:16:03;;;;;;;4.05;3.75;;;;;;;;;;1669874;29;22737;-63
2022/09/12 05:16:58;;;;;;;5.15;3.80;;;;;;;;;;1668800;29;22094;-64
2022/09/12 05:17:50;;;;;;;3.45;3.15;;;;;;;;;;1669409;29;22246;-63
2022/09/12 05:18:43;;;;;;;6.32;3.47;;;;;;;;;;1669397;29;21968;-63
2022/09/12 05:19:35;;;;;;;3.92;3.20;;;;;;;;;;1667883;29;21634;-64
2022/09/12 05:20:26;;;;;;;5.80;3.70;;;;;;;;;;1668604;29;21606;-64
2022/09/12 05:21:21;;;;;;;6.03;3.42;;;;;;;;;;1668368;29;21895;-64
2022/09/12 05:22:13;;;;;;;7.25;3.85;;;;;;;;;;1668440;29;21588;-64
2022/09/12 05:23:06;;;;;;;8.15;3.60;;;;;;;;;;1666320;29;21610;-64
2022/09/12 05:23:58;;;;;;;3.80;3.50;;;;;;;;;;1660495;29;21591;-63
2022/09/12 05:24:51;;;;;;;4.47;3.60;;;;;;;;;;1662036;29;22302;-64
2022/09/12 05:25:48;;;;;;;6.13;3.47;;;;;;;;;;1665004;29;21667;-64
2022/09/12 05:26:40;;;;;;;4.35;3.80;;;;;;;;;;1668473;29;21910;-65
2022/09/12 05:27:32;;;;;;;5.38;3.65;;;;;;;;;;1668354;29;21692;-64
2022/09/12 05:28:25;;;;;;;4.97;3.75;;;;;;;;;;1665731;29;21683;-63
2022/09/12 05:29:16;;;;;;;3.42;3.22;;;;;;;;;;1670627;29;21681;-64
2022/09/12 05:30:11;;;;;;;4.55;3.50;;;;;;;;;;1667975;29;22458;-64
2022/09/12 05:31:05;;;;;;;3.85;3.42;;;;;;;;;;1665580;29;21613;-64
2022/09/12 05:31:57;;;;;;;4.90;4.40;;;;;;;;;;1665483;29;22612;-64
2022/09/12 05:32:48;;;;;;;5.43;3.17;;;;;;;;;;1667486;29;21612;-64
2022/09/12 05:33:43;;;;;;;4.20;3.83;;;;;;;;;;1666373;29;21589;-64
2022/09/12 05:34:34;;;;;;;3.90;3.47;;;;;;;;;;1665788;29;21677;-64